sensor_id;sensor_type;location;lat;lon;timestamp;P1;durP1;ratioP1;P2;durP2;ratioP2
23410;SDS011;11878;51.774;7.220;2022-08-03T00:01:28;3.80;;;1.88;;
23410;SDS011;11878;51.774;7.220;2022-08-03T00:04:30;4.32;;;1.90;;
23410;SDS011;11878;51.774;7.220;2022-08-03T00:07:34;4.18;;;1.77;;
23410;SDS011;11878;51.774;7.220;2022-08-03T00:10:36;3.10;;;1.27;;
23410;SDS011;11878;51.774;7.220;2022-08-03T00:13:38;3.33;;;1.65;;
23410;SDS011;11878;51.774;7.220;2022-08-03T00:16:40;3.03;;;1.65;;
23410;SDS011;11878;51.774;7.220;2022-08-03T00:19:42;2.95;;;1.80;;
23410;SDS011;11878;51.774;7.220;2022-08-03T00:22:43;5.10;;;2.17;;
23410;SDS011;11878;51.774;7.220;2022-08-03T00:25:45;2.90;;;1.80;;
23410;SDS011;11878;51.774;7.220;2022-08-03T00:28:47;4.78;;;1.60;;
23410;SDS011;11878;51.774;7.220;2022-08-03T00:31:49;2.75;;;1.80;;
23410;SDS011;11878;51.774;7.220;2022-08-03T00:34:59;3.03;;;1.77;;
23410;SDS011;11878;51.774;7.220;2022-08-03T00:38:09;2.95;;;1.67;;
23410;SDS011;11878;51.774;7.220;2022-08-03T00:41:11;6.28;;;1.83;;
23410;SDS011;11878;51.774;7.220;2022-08-03T00:44:15;4.43;;;1.95;;
23410;SDS011;11878;51.774;7.220;2022-08-03T00:47:17;2.58;;;1.58;;
23410;SDS011;11878;51.774;7.220;2022-08-03T00:50:19;2.53;;;1.80;;
23410;SDS011;11878;51.774;7.220;2022-08-03T00:53:23;3.65;;;1.55;;
23410;SDS011;11878;51.774;7.220;2022-08-03T00:56:25;6.13;;;1.73;;
23410;SDS011;11878;51.774;7.220;2022-08-03T00:59:28;2.95;;;2.05;;
23410;SDS011;11878;51.774;7.220;2022-08-03T01:02:30;3.90;;;1.50;;
23410;SDS011;11878;51.774;7.220;2022-08-03T01:05:37;5.70;;;1.70;;
23410;SDS011;11878;51.774;7.220;2022-08-03T01:12:03;5.40;;;2.08;;
23410;SDS011;11878;51.774;7.220;2022-08-03T01:18:46;4.93;;;2.55;;
23410;SDS011;11878;51.774;7.220;2022-08-03T01:21:58;2.25;;;1.58;;
23410;SDS011;11878;51.774;7.220;2022-08-03T01:32:12;3.58;;;1.75;;
23410;SDS011;11878;51.774;7.220;2022-08-03T01:35:46;5.82;;;1.95;;
23410;SDS011;11878;51.774;7.220;2022-08-03T01:38:54;2.53;;;1.60;;
23410;SDS011;11878;51.774;7.220;2022-08-03T01:42:00;5.77;;;2.17;;
23410;SDS011;11878;51.774;7.220;2022-08-03T01:45:06;3.75;;;2.00;;
23410;SDS011;11878;51.774;7.220;2022-08-03T01:48:11;5.47;;;1.90;;
23410;SDS011;11878;51.774;7.220;2022-08-03T01:51:17;4.15;;;1.88;;
23410;SDS011;11878;51.774;7.220;2022-08-03T01:54:20;2.28;;;1.58;;
23410;SDS011;11878;51.774;7.220;2022-08-03T01:57:24;2.83;;;1.70;;
23410;SDS011;11878;51.774;7.220;2022-08-03T02:00:29;2.75;;;1.60;;
23410;SDS011;11878;51.774;7.220;2022-08-03T02:03:33;2.63;;;1.83;;
23410;SDS011;11878;51.774;7.220;2022-08-03T02:06:58;5.13;;;1.60;;
23410;SDS011;11878;51.774;7.220;2022-08-03T02:10:04;3.60;;;2.20;;
23410;SDS011;11878;51.774;7.220;2022-08-03T02:13:07;6.13;;;1.83;;
23410;SDS011;11878;51.774;7.220;2022-08-03T02:16:10;2.40;;;1.53;;
23410;SDS011;11878;51.774;7.220;2022-08-03T02:19:14;4.37;;;1.43;;
23410;SDS011;11878;51.774;7.220;2022-08-03T02:22:18;2.65;;;1.63;;
23410;SDS011;11878;51.774;7.220;2022-08-03T02:25:20;3.78;;;2.13;;
23410;SDS011;11878;51.774;7.220;2022-08-03T02:28:25;3.28;;;1.83;;
23410;SDS011;11878;51.774;7.220;2022-08-03T02:31:35;3.92;;;1.75;;
23410;SDS011;11878;51.774;7.220;2022-08-03T02:34:39;3.20;;;1.80;;
23410;SDS011;11878;51.774;7.220;2022-08-03T02:37:43;4.20;;;1.97;;
23410;SDS011;11878;51.774;7.220;2022-08-03T02:40:50;3.15;;;1.70;;
23410;SDS011;11878;51.774;7.220;2022-08-03T02:43:55;2.92;;;2.03;;
23410;SDS011;11878;51.774;7.220;2022-08-03T02:47:08;3.85;;;2.45;;
23410;SDS011;11878;51.774;7.220;2022-08-03T02:50:12;6.88;;;2.55;;
23410;SDS011;11878;51.774;7.220;2022-08-03T02:53:16;2.67;;;1.90;;
23410;SDS011;11878;51.774;7.220;2022-08-03T02:56:20;3.87;;;2.33;;
23410;SDS011;11878;51.774;7.220;2022-08-03T02:59:24;9.63;;;1.90;;
23410;SDS011;11878;51.774;7.220;2022-08-03T03:02:28;3.23;;;1.90;;
23410;SDS011;11878;51.774;7.220;2022-08-03T03:05:31;3.17;;;1.85;;
23410;SDS011;11878;51.774;7.220;2022-08-03T03:08:54;4.97;;;2.03;;
23410;SDS011;11878;51.774;7.220;2022-08-03T03:12:00;4.05;;;2.30;;
23410;SDS011;11878;51.774;7.220;2022-08-03T03:15:06;3.72;;;1.90;;
23410;SDS011;11878;51.774;7.220;2022-08-03T03:18:08;8.00;;;2.15;;
23410;SDS011;11878;51.774;7.220;2022-08-03T03:21:11;4.20;;;1.88;;
23410;SDS011;11878;51.774;7.220;2022-08-03T03:24:18;3.30;;;2.00;;
23410;SDS011;11878;51.774;7.220;2022-08-03T03:27:21;4.32;;;2.20;;
23410;SDS011;11878;51.774;7.220;2022-08-03T03:30:23;3.03;;;2.03;;
23410;SDS011;11878;51.774;7.220;2022-08-03T03:33:25;4.20;;;2.20;;
23410;SDS011;11878;51.774;7.220;2022-08-03T03:36:28;4.37;;;2.37;;
23410;SDS011;11878;51.774;7.220;2022-08-03T03:39:30;4.10;;;2.30;;
23410;SDS011;11878;51.774;7.220;2022-08-03T03:42:32;5.67;;;1.97;;
23410;SDS011;11878;51.774;7.220;2022-08-03T03:45:35;8.53;;;2.00;;
23410;SDS011;11878;51.774;7.220;2022-08-03T03:48:37;10.43;;;2.00;;
23410;SDS011;11878;51.774;7.220;2022-08-03T03:51:41;3.43;;;2.00;;
23410;SDS011;11878;51.774;7.220;2022-08-03T03:54:43;4.57;;;2.00;;
23410;SDS011;11878;51.774;7.220;2022-08-03T03:57:45;3.38;;;2.22;;
23410;SDS011;11878;51.774;7.220;2022-08-03T04:00:47;2.57;;;1.97;;
23410;SDS011;11878;51.774;7.220;2022-08-03T04:03:50;4.30;;;2.20;;
23410;SDS011;11878;51.774;7.220;2022-08-03T04:06:51;3.53;;;2.17;;
23410;SDS011;11878;51.774;7.220;2022-08-03T04:10:13;3.25;;;2.05;;
23410;SDS011;11878;51.774;7.220;2022-08-03T04:13:39;4.50;;;2.27;;
23410;SDS011;11878;51.774;7.220;2022-08-03T04:16:45;3.88;;;1.80;;
23410;SDS011;11878;51.774;7.220;2022-08-03T04:19:53;2.87;;;1.93;;
23410;SDS011;11878;51.774;7.220;2022-08-03T04:22:57;3.43;;;2.07;;
23410;SDS011;11878;51.774;7.220;2022-08-03T04:26:01;6.50;;;2.00;;
23410;SDS011;11878;51.774;7.220;2022-08-03T04:29:05;6.07;;;2.03;;
23410;SDS011;11878;51.774;7.220;2022-08-03T04:32:09;5.22;;;2.15;;
23410;SDS011;11878;51.774;7.220;2022-08-03T04:35:11;5.07;;;2.03;;
23410;SDS011;11878;51.774;7.220;2022-08-03T04:38:14;4.07;;;2.03;;
23410;SDS011;11878;51.774;7.220;2022-08-03T04:41:19;4.73;;;2.20;;
23410;SDS011;11878;51.774;7.220;2022-08-03T04:44:23;3.33;;;1.87;;
23410;SDS011;11878;51.774;7.220;2022-08-03T04:47:30;8.43;;;2.10;;
23410;SDS011;11878;51.774;7.220;2022-08-03T04:50:33;4.07;;;2.27;;
23410;SDS011;11878;51.774;7.220;2022-08-03T04:53:37;6.07;;;2.03;;
23410;SDS011;11878;51.774;7.220;2022-08-03T04:56:39;6.47;;;2.45;;
23410;SDS011;11878;51.774;7.220;2022-08-03T04:59:41;4.23;;;2.50;;
23410;SDS011;11878;51.774;7.220;2022-08-03T05:02:43;6.07;;;2.30;;
23410;SDS011;11878;51.774;7.220;2022-08-03T05:05:45;5.00;;;2.40;;
23410;SDS011;11878;51.774;7.220;2022-08-03T05:08:51;4.27;;;2.07;;
23410;SDS011;11878;51.774;7.220;2022-08-03T05:11:52;4.27;;;2.17;;
23410;SDS011;11878;51.774;7.220;2022-08-03T05:14:54;3.80;;;2.13;;
23410;SDS011;11878;51.774;7.220;2022-08-03T05:17:56;5.47;;;2.50;;
23410;SDS011;11878;51.774;7.220;2022-08-03T05:20:59;4.47;;;3.10;;
23410;SDS011;11878;51.774;7.220;2022-08-03T05:24:01;4.93;;;2.30;;
23410;SDS011;11878;51.774;7.220;2022-08-03T05:27:03;4.67;;;2.30;;
23410;SDS011;11878;51.774;7.220;2022-08-03T05:30:05;4.67;;;2.60;;
23410;SDS011;11878;51.774;7.220;2022-08-03T05:33:27;5.50;;;2.50;;
23410;SDS011;11878;51.774;7.220;2022-08-03T05:36:29;4.50;;;2.53;;
23410;SDS011;11878;51.774;7.220;2022-08-03T05:39:31;4.97;;;2.67;;
23410;SDS011;11878;51.774;7.220;2022-08-03T05:42:35;4.40;;;2.13;;
23410;SDS011;11878;51.774;7.220;2022-08-03T05:45:38;6.20;;;2.50;;
23410;SDS011;11878;51.774;7.220;2022-08-03T05:48:40;5.88;;;2.60;;
23410;SDS011;11878;51.774;7.220;2022-08-03T05:51:42;6.63;;;2.40;;
23410;SDS011;11878;51.774;7.220;2022-08-03T05:54:44;5.35;;;2.65;;
23410;SDS011;11878;51.774;7.220;2022-08-03T05:57:57;6.05;;;2.40;;
23410;SDS011;11878;51.774;7.220;2022-08-03T06:00:59;7.28;;;2.50;;
23410;SDS011;11878;51.774;7.220;2022-08-03T06:04:01;7.38;;;2.72;;
23410;SDS011;11878;51.774;7.220;2022-08-03T06:07:02;5.67;;;2.73;;
23410;SDS011;11878;51.774;7.220;2022-08-03T06:10:04;6.97;;;2.80;;
23410;SDS011;11878;51.774;7.220;2022-08-03T06:13:26;5.57;;;2.67;;
23410;SDS011;11878;51.774;7.220;2022-08-03T06:16:28;6.25;;;2.58;;
23410;SDS011;11878;51.774;7.220;2022-08-03T06:19:30;9.85;;;2.88;;
23410;SDS011;11878;51.774;7.220;2022-08-03T06:22:32;4.50;;;2.50;;
23410;SDS011;11878;51.774;7.220;2022-08-03T06:25:33;7.70;;;2.47;;
23410;SDS011;11878;51.774;7.220;2022-08-03T06:28:35;9.20;;;2.45;;
23410;SDS011;11878;51.774;7.220;2022-08-03T06:31:54;5.90;;;2.63;;
23410;SDS011;11878;51.774;7.220;2022-08-03T06:34:56;14.50;;;3.53;;
23410;SDS011;11878;51.774;7.220;2022-08-03T06:37:58;7.03;;;2.83;;
23410;SDS011;11878;51.774;7.220;2022-08-03T06:41:00;12.45;;;3.70;;
23410;SDS011;11878;51.774;7.220;2022-08-03T06:44:02;8.43;;;3.03;;
23410;SDS011;11878;51.774;7.220;2022-08-03T06:47:04;6.78;;;3.00;;
23410;SDS011;11878;51.774;7.220;2022-08-03T06:50:06;8.60;;;3.45;;
23410;SDS011;11878;51.774;7.220;2022-08-03T06:53:17;7.20;;;3.03;;
23410;SDS011;11878;51.774;7.220;2022-08-03T06:56:21;10.43;;;3.35;;
23410;SDS011;11878;51.774;7.220;2022-08-03T06:59:23;9.90;;;3.25;;
23410;SDS011;11878;51.774;7.220;2022-08-03T07:02:45;8.57;;;3.10;;
23410;SDS011;11878;51.774;7.220;2022-08-03T07:05:47;5.10;;;2.70;;
23410;SDS011;11878;51.774;7.220;2022-08-03T07:08:49;9.57;;;2.80;;
23410;SDS011;11878;51.774;7.220;2022-08-03T07:11:56;5.35;;;2.15;;
23410;SDS011;11878;51.774;7.220;2022-08-03T07:14:59;6.63;;;2.45;;
23410;SDS011;11878;51.774;7.220;2022-08-03T07:18:03;8.35;;;2.13;;
23410;SDS011;11878;51.774;7.220;2022-08-03T07:21:05;9.63;;;2.50;;
23410;SDS011;11878;51.774;7.220;2022-08-03T07:24:09;7.07;;;2.58;;
23410;SDS011;11878;51.774;7.220;2022-08-03T07:27:10;7.38;;;2.53;;
23410;SDS011;11878;51.774;7.220;2022-08-03T07:30:13;6.80;;;1.65;;
23410;SDS011;11878;51.774;7.220;2022-08-03T07:33:16;7.07;;;2.05;;
23410;SDS011;11878;51.774;7.220;2022-08-03T07:36:17;10.70;;;2.08;;
23410;SDS011;11878;51.774;7.220;2022-08-03T07:39:19;10.20;;;2.00;;
23410;SDS011;11878;51.774;7.220;2022-08-03T07:42:21;6.00;;;1.88;;
23410;SDS011;11878;51.774;7.220;2022-08-03T07:45:24;8.70;;;2.33;;
23410;SDS011;11878;51.774;7.220;2022-08-03T07:48:26;6.78;;;2.33;;
23410;SDS011;11878;51.774;7.220;2022-08-03T07:51:28;6.93;;;2.60;;
23410;SDS011;11878;51.774;7.220;2022-08-03T07:54:30;5.90;;;1.73;;
23410;SDS011;11878;51.774;7.220;2022-08-03T07:57:32;6.00;;;1.58;;
23410;SDS011;11878;51.774;7.220;2022-08-03T08:00:35;6.45;;;1.60;;
23410;SDS011;11878;51.774;7.220;2022-08-03T08:03:36;6.68;;;1.90;;
23410;SDS011;11878;51.774;7.220;2022-08-03T08:06:53;7.18;;;1.65;;
23410;SDS011;11878;51.774;7.220;2022-08-03T08:09:55;5.43;;;1.50;;
23410;SDS011;11878;51.774;7.220;2022-08-03T08:12:57;3.38;;;1.50;;
23410;SDS011;11878;51.774;7.220;2022-08-03T08:15:59;4.68;;;1.38;;
23410;SDS011;11878;51.774;7.220;2022-08-03T08:19:01;3.97;;;1.38;;
23410;SDS011;11878;51.774;7.220;2022-08-03T08:22:03;4.90;;;1.40;;
23410;SDS011;11878;51.774;7.220;2022-08-03T08:25:07;2.47;;;1.25;;
23410;SDS011;11878;51.774;7.220;2022-08-03T08:28:09;4.45;;;1.65;;
23410;SDS011;11878;51.774;7.220;2022-08-03T08:31:30;3.17;;;1.45;;
23410;SDS011;11878;51.774;7.220;2022-08-03T08:34:32;7.00;;;1.20;;
23410;SDS011;11878;51.774;7.220;2022-08-03T08:37:34;3.17;;;1.10;;
23410;SDS011;11878;51.774;7.220;2022-08-03T08:40:36;5.38;;;1.23;;
23410;SDS011;11878;51.774;7.220;2022-08-03T08:43:38;7.70;;;1.73;;
23410;SDS011;11878;51.774;7.220;2022-08-03T08:46:40;2.60;;;1.20;;
23410;SDS011;11878;51.774;7.220;2022-08-03T08:49:41;4.05;;;1.40;;
23410;SDS011;11878;51.774;7.220;2022-08-03T08:53:03;8.50;;;1.60;;
23410;SDS011;11878;51.774;7.220;2022-08-03T08:56:15;4.35;;;1.52;;
23410;SDS011;11878;51.774;7.220;2022-08-03T08:59:17;4.05;;;1.48;;
23410;SDS011;11878;51.774;7.220;2022-08-03T09:02:21;5.10;;;1.60;;
23410;SDS011;11878;51.774;7.220;2022-08-03T09:05:29;5.10;;;1.30;;
23410;SDS011;11878;51.774;7.220;2022-08-03T09:08:54;8.82;;;1.50;;
23410;SDS011;11878;51.774;7.220;2022-08-03T09:11:56;10.02;;;1.25;;
23410;SDS011;11878;51.774;7.220;2022-08-03T09:15:19;5.50;;;1.30;;
23410;SDS011;11878;51.774;7.220;2022-08-03T09:18:28;3.92;;;1.33;;
23410;SDS011;11878;51.774;7.220;2022-08-03T09:21:33;6.03;;;1.63;;
23410;SDS011;11878;51.774;7.220;2022-08-03T09:24:35;5.03;;;1.63;;
23410;SDS011;11878;51.774;7.220;2022-08-03T09:27:42;6.72;;;1.63;;
23410;SDS011;11878;51.774;7.220;2022-08-03T09:30:56;4.68;;;1.38;;
23410;SDS011;11878;51.774;7.220;2022-08-03T09:34:03;3.90;;;1.45;;
23410;SDS011;11878;51.774;7.220;2022-08-03T09:37:14;5.10;;;1.20;;
23410;SDS011;11878;51.774;7.220;2022-08-03T09:40:32;4.53;;;1.30;;
23410;SDS011;11878;51.774;7.220;2022-08-03T09:43:44;4.35;;;1.45;;
23410;SDS011;11878;51.774;7.220;2022-08-03T09:46:47;3.85;;;1.33;;
23410;SDS011;11878;51.774;7.220;2022-08-03T09:50:00;5.50;;;1.67;;
23410;SDS011;11878;51.774;7.220;2022-08-03T09:53:06;8.43;;;1.23;;
23410;SDS011;11878;51.774;7.220;2022-08-03T09:56:08;3.95;;;1.35;;
23410;SDS011;11878;51.774;7.220;2022-08-03T09:59:30;6.47;;;1.30;;
23410;SDS011;11878;51.774;7.220;2022-08-03T10:02:33;4.95;;;1.55;;
23410;SDS011;11878;51.774;7.220;2022-08-03T10:05:35;3.00;;;1.58;;
23410;SDS011;11878;51.774;7.220;2022-08-03T10:08:38;2.92;;;1.17;;
23410;SDS011;11878;51.774;7.220;2022-08-03T10:11:40;6.15;;;1.58;;
23410;SDS011;11878;51.774;7.220;2022-08-03T10:14:43;6.25;;;1.45;;
23410;SDS011;11878;51.774;7.220;2022-08-03T10:17:46;7.38;;;1.92;;
23410;SDS011;11878;51.774;7.220;2022-08-03T10:20:49;4.47;;;1.65;;
23410;SDS011;11878;51.774;7.220;2022-08-03T10:23:53;4.97;;;1.65;;
23410;SDS011;11878;51.774;7.220;2022-08-03T10:27:00;2.10;;;1.17;;
23410;SDS011;11878;51.774;7.220;2022-08-03T10:30:10;4.05;;;1.30;;
23410;SDS011;11878;51.774;7.220;2022-08-03T10:33:16;5.95;;;1.35;;
23410;SDS011;11878;51.774;7.220;2022-08-03T10:36:39;8.60;;;1.75;;
23410;SDS011;11878;51.774;7.220;2022-08-03T10:39:41;3.17;;;1.33;;
23410;SDS011;11878;51.774;7.220;2022-08-03T10:42:55;7.95;;;1.38;;
23410;SDS011;11878;51.774;7.220;2022-08-03T10:46:04;4.78;;;1.33;;
23410;SDS011;11878;51.774;7.220;2022-08-03T10:49:09;6.60;;;1.10;;
23410;SDS011;11878;51.774;7.220;2022-08-03T10:52:13;5.07;;;1.10;;
23410;SDS011;11878;51.774;7.220;2022-08-03T10:55:42;6.15;;;1.50;;
23410;SDS011;11878;51.774;7.220;2022-08-03T10:59:05;3.08;;;0.95;;
23410;SDS011;11878;51.774;7.220;2022-08-03T11:02:10;5.80;;;1.20;;
23410;SDS011;11878;51.774;7.220;2022-08-03T11:05:26;2.80;;;0.90;;
23410;SDS011;11878;51.774;7.220;2022-08-03T11:08:30;9.45;;;1.50;;
23410;SDS011;11878;51.774;7.220;2022-08-03T11:11:35;4.50;;;1.20;;
23410;SDS011;11878;51.774;7.220;2022-08-03T11:14:44;5.18;;;1.15;;
23410;SDS011;11878;51.774;7.220;2022-08-03T11:18:03;5.47;;;1.23;;
23410;SDS011;11878;51.774;7.220;2022-08-03T11:21:11;3.63;;;0.85;;
23410;SDS011;11878;51.774;7.220;2022-08-03T11:27:36;11.32;;;1.65;;
23410;SDS011;11878;51.774;7.220;2022-08-03T11:30:39;4.50;;;1.33;;
23410;SDS011;11878;51.774;7.220;2022-08-03T11:33:41;3.25;;;1.15;;
23410;SDS011;11878;51.774;7.220;2022-08-03T11:37:19;11.18;;;1.33;;
23410;SDS011;11878;51.774;7.220;2022-08-03T11:40:33;2.95;;;0.98;;
23410;SDS011;11878;51.774;7.220;2022-08-03T11:46:45;5.90;;;0.93;;
23410;SDS011;11878;51.774;7.220;2022-08-03T11:49:47;3.80;;;1.20;;
23410;SDS011;11878;51.774;7.220;2022-08-03T11:52:50;5.35;;;1.00;;
23410;SDS011;11878;51.774;7.220;2022-08-03T11:55:52;3.28;;;1.13;;
23410;SDS011;11878;51.774;7.220;2022-08-03T11:58:54;5.55;;;1.00;;
23410;SDS011;11878;51.774;7.220;2022-08-03T12:02:17;5.90;;;0.80;;
23410;SDS011;11878;51.774;7.220;2022-08-03T12:05:19;7.90;;;1.05;;
23410;SDS011;11878;51.774;7.220;2022-08-03T12:11:28;7.45;;;1.73;;
23410;SDS011;11878;51.774;7.220;2022-08-03T12:14:30;6.47;;;0.77;;
23410;SDS011;11878;51.774;7.220;2022-08-03T12:17:52;3.92;;;0.80;;
23410;SDS011;11878;51.774;7.220;2022-08-03T12:21:05;3.65;;;0.70;;
23410;SDS011;11878;51.774;7.220;2022-08-03T12:24:08;2.95;;;0.90;;
23410;SDS011;11878;51.774;7.220;2022-08-03T12:27:11;6.60;;;0.95;;
23410;SDS011;11878;51.774;7.220;2022-08-03T12:30:13;5.22;;;0.63;;
23410;SDS011;11878;51.774;7.220;2022-08-03T12:33:15;2.47;;;0.70;;
23410;SDS011;11878;51.774;7.220;2022-08-03T12:36:27;4.70;;;0.80;;
23410;SDS011;11878;51.774;7.220;2022-08-03T12:39:30;5.28;;;1.23;;
23410;SDS011;11878;51.774;7.220;2022-08-03T12:42:33;6.45;;;1.00;;
23410;SDS011;11878;51.774;7.220;2022-08-03T12:45:37;4.55;;;0.80;;
23410;SDS011;11878;51.774;7.220;2022-08-03T12:52:03;8.02;;;1.42;;
23410;SDS011;11878;51.774;7.220;2022-08-03T12:55:08;2.33;;;0.88;;
23410;SDS011;11878;51.774;7.220;2022-08-03T12:58:28;3.53;;;0.52;;
23410;SDS011;11878;51.774;7.220;2022-08-03T13:01:37;3.25;;;0.80;;
23410;SDS011;11878;51.774;7.220;2022-08-03T13:04:56;5.35;;;0.70;;
23410;SDS011;11878;51.774;7.220;2022-08-03T13:07:58;4.25;;;0.90;;
23410;SDS011;11878;51.774;7.220;2022-08-03T13:11:16;3.22;;;0.68;;
23410;SDS011;11878;51.774;7.220;2022-08-03T13:14:50;5.32;;;1.40;;
23410;SDS011;11878;51.774;7.220;2022-08-03T13:17:55;4.28;;;0.80;;
23410;SDS011;11878;51.774;7.220;2022-08-03T13:20:57;2.22;;;0.73;;
23410;SDS011;11878;51.774;7.220;2022-08-03T13:23:59;4.63;;;0.80;;
23410;SDS011;11878;51.774;7.220;2022-08-03T13:27:01;4.10;;;0.82;;
23410;SDS011;11878;51.774;7.220;2022-08-03T13:30:25;1.80;;;1.00;;
23410;SDS011;11878;51.774;7.220;2022-08-03T13:33:30;3.78;;;0.50;;
23410;SDS011;11878;51.774;7.220;2022-08-03T13:36:32;2.90;;;0.60;;
23410;SDS011;11878;51.774;7.220;2022-08-03T13:39:54;5.43;;;0.60;;
23410;SDS011;11878;51.774;7.220;2022-08-03T13:43:00;6.57;;;0.80;;
23410;SDS011;11878;51.774;7.220;2022-08-03T13:46:01;5.00;;;1.23;;
23410;SDS011;11878;51.774;7.220;2022-08-03T13:49:03;5.13;;;0.68;;
23410;SDS011;11878;51.774;7.220;2022-08-03T13:52:05;2.95;;;0.60;;
23410;SDS011;11878;51.774;7.220;2022-08-03T13:55:07;8.30;;;1.20;;
23410;SDS011;11878;51.774;7.220;2022-08-03T13:58:09;2.58;;;0.52;;
23410;SDS011;11878;51.774;7.220;2022-08-03T14:01:12;0.82;;;0.40;;
23410;SDS011;11878;51.774;7.220;2022-08-03T14:04:14;6.28;;;0.80;;
23410;SDS011;11878;51.774;7.220;2022-08-03T14:07:22;2.10;;;0.57;;
23410;SDS011;11878;51.774;7.220;2022-08-03T14:10:24;1.50;;;0.63;;
23410;SDS011;11878;51.774;7.220;2022-08-03T14:13:26;3.25;;;0.60;;
23410;SDS011;11878;51.774;7.220;2022-08-03T14:16:27;2.45;;;0.65;;
23410;SDS011;11878;51.774;7.220;2022-08-03T14:19:29;2.60;;;1.30;;
23410;SDS011;11878;51.774;7.220;2022-08-03T14:22:32;2.20;;;0.70;;
23410;SDS011;11878;51.774;7.220;2022-08-03T14:25:33;4.93;;;0.70;;
23410;SDS011;11878;51.774;7.220;2022-08-03T14:28:50;6.90;;;0.70;;
23410;SDS011;11878;51.774;7.220;2022-08-03T14:31:52;1.50;;;0.65;;
23410;SDS011;11878;51.774;7.220;2022-08-03T14:35:13;1.70;;;0.70;;
23410;SDS011;11878;51.774;7.220;2022-08-03T14:38:15;2.53;;;0.88;;
23410;SDS011;11878;51.774;7.220;2022-08-03T14:41:17;3.95;;;0.60;;
23410;SDS011;11878;51.774;7.220;2022-08-03T14:44:20;4.93;;;0.70;;
23410;SDS011;11878;51.774;7.220;2022-08-03T14:47:22;1.55;;;0.63;;
23410;SDS011;11878;51.774;7.220;2022-08-03T14:50:24;3.13;;;0.65;;
23410;SDS011;11878;51.774;7.220;2022-08-03T14:53:41;1.05;;;0.50;;
23410;SDS011;11878;51.774;7.220;2022-08-03T14:56:42;2.13;;;0.50;;
23410;SDS011;11878;51.774;7.220;2022-08-03T14:59:44;7.60;;;0.85;;
23410;SDS011;11878;51.774;7.220;2022-08-03T15:02:57;2.58;;;0.82;;
23410;SDS011;11878;51.774;7.220;2022-08-03T15:05:59;4.10;;;0.60;;
23410;SDS011;11878;51.774;7.220;2022-08-03T15:09:01;2.65;;;0.50;;
23410;SDS011;11878;51.774;7.220;2022-08-03T15:12:23;4.55;;;0.45;;
23410;SDS011;11878;51.774;7.220;2022-08-03T15:15:24;2.10;;;0.70;;
23410;SDS011;11878;51.774;7.220;2022-08-03T15:18:26;3.35;;;0.70;;
23410;SDS011;11878;51.774;7.220;2022-08-03T15:21:28;2.55;;;0.50;;
23410;SDS011;11878;51.774;7.220;2022-08-03T15:24:48;3.53;;;0.50;;
23410;SDS011;11878;51.774;7.220;2022-08-03T15:27:49;3.85;;;0.60;;
23410;SDS011;11878;51.774;7.220;2022-08-03T15:31:04;3.28;;;1.13;;
23410;SDS011;11878;51.774;7.220;2022-08-03T15:34:06;5.97;;;0.75;;
23410;SDS011;11878;51.774;7.220;2022-08-03T15:37:08;1.13;;;0.35;;
23410;SDS011;11878;51.774;7.220;2022-08-03T15:40:24;1.05;;;0.40;;
23410;SDS011;11878;51.774;7.220;2022-08-03T15:43:26;2.47;;;0.75;;
23410;SDS011;11878;51.774;7.220;2022-08-03T15:46:28;2.92;;;0.57;;
23410;SDS011;11878;51.774;7.220;2022-08-03T15:49:30;4.03;;;0.40;;
23410;SDS011;11878;51.774;7.220;2022-08-03T15:52:34;3.05;;;0.60;;
23410;SDS011;11878;51.774;7.220;2022-08-03T15:55:36;2.15;;;0.35;;
23410;SDS011;11878;51.774;7.220;2022-08-03T15:58:37;2.92;;;0.82;;
23410;SDS011;11878;51.774;7.220;2022-08-03T16:01:59;0.80;;;0.40;;
23410;SDS011;11878;51.774;7.220;2022-08-03T16:05:01;2.75;;;0.40;;
23410;SDS011;11878;51.774;7.220;2022-08-03T16:08:03;3.55;;;0.73;;
23410;SDS011;11878;51.774;7.220;2022-08-03T16:11:11;3.85;;;0.50;;
23410;SDS011;11878;51.774;7.220;2022-08-03T16:14:13;1.60;;;0.55;;
23410;SDS011;11878;51.774;7.220;2022-08-03T16:17:35;4.60;;;0.60;;
23410;SDS011;11878;51.774;7.220;2022-08-03T16:20:38;3.78;;;0.57;;
23410;SDS011;11878;51.774;7.220;2022-08-03T16:23:42;2.03;;;0.43;;
23410;SDS011;11878;51.774;7.220;2022-08-03T16:26:47;2.13;;;0.40;;
23410;SDS011;11878;51.774;7.220;2022-08-03T16:29:49;1.40;;;0.40;;
23410;SDS011;11878;51.774;7.220;2022-08-03T16:32:51;3.35;;;0.90;;
23410;SDS011;11878;51.774;7.220;2022-08-03T16:35:53;6.38;;;0.60;;
23410;SDS011;11878;51.774;7.220;2022-08-03T16:38:55;7.20;;;0.55;;
23410;SDS011;11878;51.774;7.220;2022-08-03T16:41:57;5.93;;;0.80;;
23410;SDS011;11878;51.774;7.220;2022-08-03T16:45:02;7.22;;;1.30;;
23410;SDS011;11878;51.774;7.220;2022-08-03T16:48:05;1.92;;;0.68;;
23410;SDS011;11878;51.774;7.220;2022-08-03T16:51:07;3.53;;;0.50;;
23410;SDS011;11878;51.774;7.220;2022-08-03T16:54:09;2.17;;;0.68;;
23410;SDS011;11878;51.774;7.220;2022-08-03T16:57:14;2.40;;;0.43;;
23410;SDS011;11878;51.774;7.220;2022-08-03T17:00:16;3.78;;;0.40;;
23410;SDS011;11878;51.774;7.220;2022-08-03T17:03:34;7.20;;;0.60;;
23410;SDS011;11878;51.774;7.220;2022-08-03T17:06:59;1.60;;;0.40;;
23410;SDS011;11878;51.774;7.220;2022-08-03T17:10:03;3.53;;;0.73;;
23410;SDS011;11878;51.774;7.220;2022-08-03T17:13:07;3.90;;;0.85;;
23410;SDS011;11878;51.774;7.220;2022-08-03T17:16:09;4.63;;;0.95;;
23410;SDS011;11878;51.774;7.220;2022-08-03T17:19:15;5.22;;;0.98;;
23410;SDS011;11878;51.774;7.220;2022-08-03T17:22:19;3.03;;;0.77;;
23410;SDS011;11878;51.774;7.220;2022-08-03T17:25:29;2.60;;;0.80;;
23410;SDS011;11878;51.774;7.220;2022-08-03T17:28:52;8.55;;;1.10;;
23410;SDS011;11878;51.774;7.220;2022-08-03T17:31:58;3.72;;;1.10;;
23410;SDS011;11878;51.774;7.220;2022-08-03T17:35:08;6.20;;;0.70;;
23410;SDS011;11878;51.774;7.220;2022-08-03T17:38:10;6.50;;;0.98;;
23410;SDS011;11878;51.774;7.220;2022-08-03T17:41:18;5.20;;;0.80;;
23410;SDS011;11878;51.774;7.220;2022-08-03T17:44:22;6.45;;;0.90;;
23410;SDS011;11878;51.774;7.220;2022-08-03T17:47:34;7.10;;;0.93;;
23410;SDS011;11878;51.774;7.220;2022-08-03T17:50:45;3.28;;;0.65;;
23410;SDS011;11878;51.774;7.220;2022-08-03T17:57:30;5.63;;;1.08;;
23410;SDS011;11878;51.774;7.220;2022-08-03T18:00:59;3.42;;;0.45;;
23410;SDS011;11878;51.774;7.220;2022-08-03T18:04:41;4.20;;;0.60;;
23410;SDS011;11878;51.774;7.220;2022-08-03T18:07:57;7.18;;;0.70;;
23410;SDS011;11878;51.774;7.220;2022-08-03T18:11:05;4.88;;;0.65;;
23410;SDS011;11878;51.774;7.220;2022-08-03T18:14:19;9.02;;;1.20;;
23410;SDS011;11878;51.774;7.220;2022-08-03T18:17:32;10.07;;;1.00;;
23410;SDS011;11878;51.774;7.220;2022-08-03T18:20:55;8.35;;;0.95;;
23410;SDS011;11878;51.774;7.220;2022-08-03T18:23:59;6.00;;;0.80;;
23410;SDS011;11878;51.774;7.220;2022-08-03T18:27:01;4.13;;;0.82;;
23410;SDS011;11878;51.774;7.220;2022-08-03T18:30:06;6.20;;;0.93;;
23410;SDS011;11878;51.774;7.220;2022-08-03T18:33:13;5.35;;;0.57;;
23410;SDS011;11878;51.774;7.220;2022-08-03T18:36:35;7.07;;;0.80;;
23410;SDS011;11878;51.774;7.220;2022-08-03T18:39:39;4.38;;;0.90;;
23410;SDS011;11878;51.774;7.220;2022-08-03T18:42:52;2.80;;;0.65;;
23410;SDS011;11878;51.774;7.220;2022-08-03T18:45:56;6.13;;;1.00;;
23410;SDS011;11878;51.774;7.220;2022-08-03T18:55:38;4.60;;;1.08;;
23410;SDS011;11878;51.774;7.220;2022-08-03T18:59:32;4.30;;;1.00;;
23410;SDS011;11878;51.774;7.220;2022-08-03T19:02:59;6.32;;;1.02;;
23410;SDS011;11878;51.774;7.220;2022-08-03T19:06:05;2.35;;;0.70;;
23410;SDS011;11878;51.774;7.220;2022-08-03T19:09:19;3.58;;;0.70;;
23410;SDS011;11878;51.774;7.220;2022-08-03T19:12:51;8.82;;;1.25;;
23410;SDS011;11878;51.774;7.220;2022-08-03T19:15:56;12.07;;;1.33;;
23410;SDS011;11878;51.774;7.220;2022-08-03T19:19:01;3.03;;;0.98;;
23410;SDS011;11878;51.774;7.220;2022-08-03T19:22:03;7.20;;;1.50;;